Weather History for Taylorville, IL

Change the Weather History Date:

Friday, April 12, 2013

  Actual Average (KSPI) Record (KSPI)
Temperature  
Mean Temperature 38 °F 52 °F  
Max Temperature 41 °F 63 °F 88 °F (1930)
Min Temperature 35 °F 41 °F 23 °F (1957)
Degree Days  
Heating Degree Days 27 13  
Month to date heating degree days 182  
Since 1 July heating degree days 5164  
Cooling Degree Days 0 1  
Month to date cooling degree days 1  
Year to date cooling degree days 3  
Moisture  
Dew Point 32 °F    
Average Humidity 75    
Maximum Humidity 81    
Minimum Humidity 65    
Precipitation  
Precipitation 0.00 in 0.11 in 1.31 in (1952)
Month to date precipitation 1.27  
Year to date precipitation 7.53  
Snow  
Snow 0.00 in 0.00 in 1.50 in (1951)
Month to date snowfall 0.2  
Since 1 July snowfall 20.8  
Snow Depth -    
Sea Level Pressure  
Sea Level Pressure 29.81 in    
Wind  
Wind Speed 12 mph (WSW)    
Max Wind Speed 21 mph    
Max Gust Speed 28 mph    
Visibility 10 miles    
Events      
T = Trace of Precipitation, MM = Missing Value Source: NWS Daily Summary

Daily Weather History Graph

Daily Weather History Graph

Search for Another Location

Airport:

Trip Planner

Search our weather history database for the weather conditions in past years. The results will help you decide how hot, cold, wet, or windy it might be!

Date:

Astronomy

Apr. 12, 2013 Rise Set
Actual Time 6:24 AM CDT 7:32 PM CDT
Civil Twilight 5:56 AM CDT 8:00 PM CDT
Nautical Twilight 5:23 AM CDT 8:33 PM CDT
Astronomical Twilight 4:49 AM CDT 9:07 PM CDT
Moon 7:34 AM CDT (4/12) 10:02 PM CDT (4/12)
Length of Visible Light 14h 03m
Length of Day
13h 08m
Waxing Crescent, 5% of the Moon is Illuminated
Apr 12
Waxing Crescent
Apr 18
First Quarter
Apr 25
Full
May 2
Last Quarter
May 9
New

Hourly Weather History & Observations

Time (CDT) Temp. Windchill Dew Point Humidity Pressure Visibility Wind Dir Wind Speed Gust Speed Precip Events Conditions
12:15 AM 37.4 °F 30.3 °F 28.4 °F 70% 29.71 in 10.0 mi WSW 10.4 mph 18.4 mph N/A   Overcast
12:35 AM 37.4 °F 29.8 °F 28.4 °F 70% 29.71 in 10.0 mi WSW 11.5 mph - N/A   Mostly Cloudy
12:55 AM 35.6 °F 29.9 °F 28.4 °F 75% 29.71 in 10.0 mi WSW 6.9 mph - N/A   Clear
1:15 AM 35.6 °F 28.6 °F 28.4 °F 75% 29.71 in 10.0 mi WSW 9.2 mph - N/A   Clear
1:35 AM 35.6 °F 29.2 °F 28.4 °F 75% 29.70 in 10.0 mi SW 8.1 mph - N/A   Clear
1:55 AM 35.6 °F 29.2 °F 28.4 °F 75% 29.70 in 10.0 mi SW 8.1 mph - N/A   Scattered Clouds
2:15 AM 35.6 °F 28.6 °F 28.4 °F 75% 29.69 in 10.0 mi SW 9.2 mph - N/A   Mostly Cloudy
2:35 AM 35.6 °F 28.6 °F 28.4 °F 75% 29.69 in 10.0 mi SW 9.2 mph - N/A   Overcast
2:55 AM 35.6 °F 28.0 °F 30.2 °F 81% 29.69 in 10.0 mi WSW 10.4 mph - N/A   Overcast
3:15 AM 37.4 °F 30.3 °F 30.2 °F 75% 29.69 in 10.0 mi SW 10.4 mph - N/A   Overcast
3:35 AM 37.4 °F 29.8 °F 30.2 °F 75% 29.68 in 10.0 mi SW 11.5 mph - N/A   Overcast
3:55 AM 37.4 °F 30.3 °F 30.2 °F 75% 29.68 in 10.0 mi WSW 10.4 mph - N/A   Overcast
4:15 AM 37.4 °F 30.3 °F 30.2 °F 75% 29.68 in 10.0 mi SW 10.4 mph - N/A   Overcast
4:35 AM 37.4 °F 29.8 °F 30.2 °F 75% 29.68 in 10.0 mi WSW 11.5 mph - N/A   Overcast
4:55 AM 37.4 °F 29.8 °F 30.2 °F 75% 29.68 in 10.0 mi WSW 11.5 mph - N/A   Overcast
5:15 AM 37.4 °F 30.3 °F 30.2 °F 75% 29.69 in 10.0 mi WSW 10.4 mph - N/A   Overcast
5:35 AM 37.4 °F 29.8 °F 30.2 °F 75% 29.69 in 10.0 mi WSW 11.5 mph - N/A   Overcast
5:55 AM 37.4 °F 30.8 °F 30.2 °F 75% 29.69 in 10.0 mi WSW 9.2 mph - N/A   Overcast
6:15 AM 37.4 °F 30.3 °F 30.2 °F 75% 29.69 in 10.0 mi SW 10.4 mph - N/A   Overcast
6:35 AM 37.4 °F 30.3 °F 30.2 °F 75% 29.70 in 10.0 mi SW 10.4 mph - N/A   Overcast
6:55 AM 37.4 °F 30.3 °F 30.2 °F 75% 29.71 in 10.0 mi SW 10.4 mph - N/A   Overcast
7:15 AM 37.4 °F 30.3 °F 30.2 °F 75% 29.72 in 10.0 mi SW 10.4 mph - N/A   Overcast
7:35 AM 37.4 °F 29.8 °F 30.2 °F 75% 29.72 in 10.0 mi SW 11.5 mph - N/A   Overcast
7:55 AM 37.4 °F 28.2 °F 30.2 °F 75% 29.73 in 10.0 mi SW 16.1 mph 20.7 mph N/A   Overcast
8:15 AM 37.4 °F 28.5 °F 30.2 °F 75% 29.73 in 10.0 mi SW 15.0 mph - N/A   Overcast
8:35 AM 37.4 °F 28.5 °F 30.2 °F 75% 29.74 in 10.0 mi WSW 15.0 mph 20.7 mph N/A   Overcast
8:55 AM 37.4 °F 28.2 °F 30.2 °F 75% 29.74 in 10.0 mi WSW 16.1 mph - N/A   Overcast
9:15 AM 37.4 °F 28.2 °F 30.2 °F 75% 29.74 in 10.0 mi WSW 16.1 mph 21.9 mph N/A   Overcast
9:35 AM 39.2 °F 30.5 °F 32.0 °F 75% 29.74 in 10.0 mi WSW 16.1 mph - N/A   Overcast
9:55 AM 39.2 °F 30.8 °F 32.0 °F 75% 29.75 in 10.0 mi West 15.0 mph 23.0 mph N/A   Overcast
10:15 AM 41.0 °F 32.8 °F 33.8 °F 76% 29.75 in 10.0 mi WSW 16.1 mph 21.9 mph N/A   Mostly Cloudy
10:35 AM 39.2 °F 29.6 °F 30.2 °F 70% 29.76 in 10.0 mi WSW 19.6 mph 23.0 mph N/A   Mostly Cloudy
10:55 AM 39.2 °F 29.6 °F 30.2 °F 70% 29.77 in 10.0 mi West 19.6 mph 24.2 mph N/A   Overcast
11:15 AM 41.0 °F 32.5 °F 30.2 °F 65% 29.78 in 10.0 mi WSW 17.3 mph 25.3 mph N/A   Overcast
11:35 AM 39.2 °F 29.8 °F 30.2 °F 70% 29.79 in 10.0 mi WSW 18.4 mph 21.9 mph N/A   Overcast
11:55 AM 41.0 °F 32.2 °F 32.0 °F 70% 29.79 in 10.0 mi WSW 18.4 mph 25.3 mph N/A   Overcast
12:15 PM 41.0 °F 31.6 °F 30.2 °F 65% 29.80 in 10.0 mi WSW 20.7 mph - N/A   Overcast
12:35 PM 41.0 °F 32.8 °F 32.0 °F 70% 29.80 in 10.0 mi WSW 16.1 mph - N/A   Overcast
12:55 PM 41.0 °F 32.8 °F 33.8 °F 76% 29.81 in 10.0 mi WSW 16.1 mph 23.0 mph N/A   Overcast
1:15 PM 41.0 °F 32.5 °F 32.0 °F 70% 29.82 in 10.0 mi WSW 17.3 mph 21.9 mph N/A   Overcast
1:35 PM 41.0 °F 33.1 °F 32.0 °F 70% 29.82 in 10.0 mi WSW 15.0 mph 24.2 mph N/A   Overcast
1:55 PM 41.0 °F 32.5 °F 33.8 °F 76% 29.83 in 10.0 mi West 17.3 mph - N/A   Overcast
2:15 PM 41.0 °F 31.9 °F 33.8 °F 76% 29.84 in 10.0 mi WSW 19.6 mph 27.6 mph N/A   Overcast
2:35 PM 41.0 °F 32.8 °F 33.8 °F 76% 29.85 in 10.0 mi West 16.1 mph 24.2 mph N/A   Overcast
2:55 PM 41.0 °F 31.9 °F 32.0 °F 70% 29.85 in 10.0 mi West 19.6 mph 24.2 mph N/A   Overcast
3:15 PM 41.0 °F 31.9 °F 32.0 °F 70% 29.86 in 10.0 mi West 19.6 mph 25.3 mph N/A   Overcast
3:35 PM 41.0 °F 32.2 °F 32.0 °F 70% 29.87 in 10.0 mi West 18.4 mph 23.0 mph N/A   Overcast
3:55 PM 41.0 °F 32.5 °F 32.0 °F 70% 29.88 in 10.0 mi West 17.3 mph 24.2 mph N/A   Overcast
4:15 PM 41.0 °F 33.5 °F 32.0 °F 70% 29.88 in 10.0 mi West 13.8 mph 20.7 mph N/A   Overcast
4:35 PM 41.0 °F 32.8 °F 32.0 °F 70% 29.88 in 10.0 mi West 16.1 mph 23.0 mph N/A   Overcast
4:55 PM 39.2 °F 30.8 °F 32.0 °F 75% 29.90 in 10.0 mi West 15.0 mph 19.6 mph N/A   Overcast
5:15 PM 39.2 °F 30.8 °F 32.0 °F 75% 29.90 in 10.0 mi West 15.0 mph 19.6 mph N/A   Overcast
5:35 PM 41.0 °F 34.3 °F 33.8 °F 76% 29.90 in 10.0 mi West 11.5 mph - N/A   Overcast
5:55 PM 41.0 °F 33.1 °F 33.8 °F 76% 29.91 in 10.0 mi West 15.0 mph - N/A   Overcast
6:15 PM 41.0 °F 33.9 °F 32.0 °F 70% 29.91 in 10.0 mi West 12.7 mph 18.4 mph N/A   Overcast
6:35 PM 39.2 °F 31.6 °F 33.8 °F 81% 29.91 in 10.0 mi WSW 12.7 mph - N/A   Overcast
6:55 PM 39.2 °F 33.0 °F 33.8 °F 81% 29.91 in 10.0 mi West 9.2 mph - N/A   Overcast
7:15 PM 39.2 °F 32.5 °F 33.8 °F 81% 29.92 in 10.0 mi WSW 10.4 mph - N/A   Overcast
7:35 PM 39.2 °F 32.5 °F 33.8 °F 81% 29.92 in 10.0 mi WSW 10.4 mph - N/A   Overcast
7:55 PM 39.2 °F 33.0 °F 33.8 °F 81% 29.92 in 10.0 mi WSW 9.2 mph - N/A   Overcast
8:15 PM 39.2 °F 33.0 °F 33.8 °F 81% 29.93 in 10.0 mi WSW 9.2 mph - N/A   Overcast
8:35 PM 39.2 °F 33.6 °F 33.8 °F 81% 29.93 in 10.0 mi WSW 8.1 mph - N/A   Overcast
8:55 PM 39.2 °F 33.0 °F 33.8 °F 81% 29.93 in 10.0 mi WSW 9.2 mph - N/A   Overcast
9:15 PM 39.2 °F 33.0 °F 33.8 °F 81% 29.94 in 10.0 mi WSW 9.2 mph - N/A   Overcast
9:35 PM 39.2 °F 32.5 °F 33.8 °F 81% 29.95 in 10.0 mi SW 10.4 mph - N/A   Overcast
9:55 PM 39.2 °F 32.5 °F 33.8 °F 81% 29.95 in 10.0 mi SW 10.4 mph - N/A   Overcast
10:15 PM 39.2 °F 31.6 °F 33.8 °F 81% 29.96 in 10.0 mi WSW 12.7 mph 17.3 mph N/A   Overcast
10:35 PM 39.2 °F 32.5 °F 33.8 °F 81% 29.96 in 10.0 mi WSW 10.4 mph - N/A   Overcast
10:55 PM 39.2 °F 33.6 °F 33.8 °F 81% 29.96 in 10.0 mi WSW 8.1 mph - N/A   Overcast
11:15 PM 39.2 °F 33.0 °F 33.8 °F 81% 29.96 in 10.0 mi WSW 9.2 mph - N/A   Overcast
11:35 PM 39.2 °F 33.0 °F 33.8 °F 81% 29.97 in 10.0 mi WSW 9.2 mph - N/A   Overcast
11:55 PM 39.2 °F 32.5 °F 33.8 °F 81% 29.97 in 10.0 mi WSW 10.4 mph - N/A   Overcast